Time;durP1;ratioP1;P1;durP2;ratioP2;P2;SDS_P1;SDS_P2;PMS_P1;PMS_P2;Temp;Humidity;BMP_temperature;BMP_pressure;BME280_temperature;BME280_humidity;BME280_pressure;Samples;Min_cycle;Max_cycle;Signal;HPM_P1;HPM_P2
2022/11/20 00:01:56;;;;;;;24.48;11.02;;;;;;;;;;5048533;28;20148;-60
2022/11/20 00:04:22;;;;;;;24.83;11.40;;;;;;;;;;5038342;28;20045;-59
2022/11/20 00:06:50;;;;;;;22.73;11.30;;;;;;;;;;5042548;28;20135;-59
2022/11/20 00:09:17;;;;;;;25.25;11.10;;;;;;;;;;5044952;28;20128;-60
2022/11/20 00:11:43;;;;;;;23.98;11.85;;;;;;;;;;5032594;28;20136;-60
2022/11/20 00:14:13;;;;;;;25.05;11.02;;;;;;;;;;5037211;28;20064;-61
2022/11/20 00:16:40;;;;;;;28.52;11.40;;;;;;;;;;5037665;28;20132;-60
2022/11/20 00:19:06;;;;;;;25.20;11.93;;;;;;;;;;5038922;28;20132;-60
2022/11/20 00:21:32;;;;;;;26.70;11.70;;;;;;;;;;5050787;28;20628;-60
2022/11/20 00:24:00;;;;;;;25.27;11.63;;;;;;;;;;5044106;28;20049;-59
2022/11/20 00:26:27;;;;;;;25.42;11.43;;;;;;;;;;5048903;28;20530;-60
2022/11/20 00:28:54;;;;;;;29.08;13.68;;;;;;;;;;5039418;28;20128;-60
2022/11/20 00:31:21;;;;;;;23.77;12.13;;;;;;;;;;5049879;28;20421;-59
2022/11/20 00:33:47;;;;;;;29.75;13.15;;;;;;;;;;5051257;28;20080;-60
2022/11/20 00:36:15;;;;;;;30.75;12.75;;;;;;;;;;5051114;28;20124;-60
2022/11/20 00:38:42;;;;;;;24.20;12.55;;;;;;;;;;5054576;28;20435;-59
2022/11/20 00:41:11;;;;;;;30.35;12.43;;;;;;;;;;5051381;28;20141;-60
2022/11/20 00:43:37;;;;;;;24.40;11.13;;;;;;;;;;5035412;28;20153;-60
2022/11/20 00:46:05;;;;;;;26.63;13.38;;;;;;;;;;5048535;28;20136;-60
2022/11/20 00:48:31;;;;;;;25.23;12.45;;;;;;;;;;5044799;28;20080;-60
2022/11/20 00:50:58;;;;;;;26.60;12.63;;;;;;;;;;5041074;28;20127;-59
2022/11/20 00:53:24;;;;;;;26.67;11.10;;;;;;;;;;5045196;28;20485;-59
2022/11/20 00:55:55;;;;;;;24.05;10.70;;;;;;;;;;5047300;28;20133;-59
2022/11/20 00:58:22;;;;;;;26.88;11.98;;;;;;;;;;5045791;28;20049;-59
2022/11/20 01:00:49;;;;;;;25.83;12.85;;;;;;;;;;5037491;28;20132;-59
2022/11/20 01:03:16;;;;;;;25.40;12.40;;;;;;;;;;5045531;28;20064;-59
2022/11/20 01:05:42;;;;;;;24.38;12.13;;;;;;;;;;5040844;28;20045;-60
2022/11/20 01:08:09;;;;;;;25.17;11.68;;;;;;;;;;5043951;28;20112;-60
2022/11/20 01:10:35;;;;;;;24.67;11.93;;;;;;;;;;5039130;28;20136;-59
2022/11/20 01:15:47;;;;;;;39.55;16.52;;;;;;;;;;5049438;28;20060;-60
2022/11/20 01:18:13;;;;;;;34.92;14.73;;;;;;;;;;5035281;28;20148;-59
2022/11/20 01:20:40;;;;;;;23.50;11.07;;;;;;;;;;5043180;28;20364;-60
2022/11/20 01:23:06;;;;;;;24.80;11.20;;;;;;;;;;5053710;28;20045;-60
2022/11/20 01:25:34;;;;;;;25.75;10.30;;;;;;;;;;5037440;28;20409;-60
2022/11/20 01:28:01;;;;;;;22.88;10.30;;;;;;;;;;5047028;28;20124;-59
2022/11/20 01:30:27;;;;;;;21.90;11.05;;;;;;;;;;5047964;28;20139;-60
2022/11/20 01:32:55;;;;;;;25.77;11.57;;;;;;;;;;5036051;28;20464;-60
2022/11/20 01:35:22;;;;;;;27.00;11.68;;;;;;;;;;5044519;28;20063;-59
2022/11/20 01:37:48;;;;;;;18.20;9.52;;;;;;;;;;5042555;28;20169;-57
2022/11/20 01:40:15;;;;;;;20.33;10.45;;;;;;;;;;5040980;28;20129;-59
2022/11/20 01:46:02;;;;;;;21.80;10.32;;;;;;;;;;5047191;28;20056;-59
2022/11/20 01:48:33;;;;;;;21.60;10.50;;;;;;;;;;4996138;28;20173;-59
2022/11/20 01:51:00;;;;;;;26.05;11.98;;;;;;;;;;5002852;28;20672;-60
2022/11/20 01:53:31;;;;;;;19.60;9.93;;;;;;;;;;5027370;28;20076;-60
2022/11/20 01:56:00;;;;;;;22.45;10.23;;;;;;;;;;5049914;28;20076;-60
2022/11/20 01:58:28;;;;;;;24.23;10.57;;;;;;;;;;5040603;28;20088;-58
2022/11/20 02:00:54;;;;;;;23.45;10.63;;;;;;;;;;5038022;28;20473;-59
2022/11/20 02:03:21;;;;;;;23.77;11.15;;;;;;;;;;5034378;28;20045;-60
2022/11/20 02:05:51;;;;;;;23.42;10.55;;;;;;;;;;5040002;28;20132;-60
2022/11/20 02:08:18;;;;;;;22.77;10.25;;;;;;;;;;5034351;28;20089;-59
2022/11/20 02:10:44;;;;;;;22.65;10.70;;;;;;;;;;5046967;28;20550;-60
2022/11/20 02:15:55;;;;;;;24.33;10.38;;;;;;;;;;5034873;28;20052;-60
2022/11/20 02:18:22;;;;;;;24.85;9.90;;;;;;;;;;5047237;28;20140;-60
2022/11/20 02:20:51;;;;;;;24.52;10.13;;;;;;;;;;5044448;28;20099;-60
2022/11/20 02:23:21;;;;;;;24.05;10.13;;;;;;;;;;5052459;28;20084;-59
2022/11/20 02:25:48;;;;;;;24.42;10.70;;;;;;;;;;5042404;28;20050;-60
2022/11/20 02:28:15;;;;;;;23.15;10.20;;;;;;;;;;5044671;28;20136;-60
2022/11/20 02:30:42;;;;;;;23.63;11.05;;;;;;;;;;5046420;28;20243;-60
2022/11/20 02:33:08;;;;;;;25.10;10.00;;;;;;;;;;5052185;28;20395;-59
2022/11/20 02:35:42;;;;;;;20.45;9.70;;;;;;;;;;5039087;28;20137;-60
2022/11/20 02:38:09;;;;;;;21.08;10.20;;;;;;;;;;5044626;28;20057;-59
2022/11/20 02:40:35;;;;;;;20.73;10.27;;;;;;;;;;5033112;28;20129;-60
2022/11/20 02:43:03;;;;;;;24.10;10.70;;;;;;;;;;5032896;28;20492;-60
2022/11/20 02:45:30;;;;;;;26.02;11.30;;;;;;;;;;5033757;28;20144;-59
2022/11/20 02:47:56;;;;;;;20.40;10.48;;;;;;;;;;5033175;28;20045;-60
2022/11/20 02:50:23;;;;;;;24.70;10.18;;;;;;;;;;5051326;28;20049;-59
2022/11/20 02:52:49;;;;;;;23.83;10.43;;;;;;;;;;5048205;28;20132;-59
2022/11/20 02:55:16;;;;;;;25.02;10.63;;;;;;;;;;5056778;28;20136;-59
2022/11/20 02:57:42;;;;;;;23.48;10.15;;;;;;;;;;5051104;28;20149;-59
2022/11/20 03:00:10;;;;;;;27.88;10.43;;;;;;;;;;5051702;28;20059;-59
2022/11/20 03:02:37;;;;;;;28.45;12.02;;;;;;;;;;5046443;28;20559;-60
2022/11/20 03:05:03;;;;;;;21.83;10.10;;;;;;;;;;5046380;28;20053;-59
2022/11/20 03:07:30;;;;;;;22.33;10.63;;;;;;;;;;5033698;28;20449;-60
2022/11/20 03:09:56;;;;;;;25.35;10.68;;;;;;;;;;5034436;28;20116;-60
2022/11/20 03:12:23;;;;;;;22.08;11.45;;;;;;;;;;5047000;28;20160;-60
2022/11/20 03:14:49;;;;;;;25.88;11.02;;;;;;;;;;5036666;28;20549;-60
2022/11/20 03:17:18;;;;;;;25.73;11.20;;;;;;;;;;5043644;28;20135;-60
2022/11/20 03:19:44;;;;;;;25.27;11.90;;;;;;;;;;5047742;28;20140;-60
2022/11/20 03:22:10;;;;;;;23.85;10.68;;;;;;;;;;5047846;28;20137;-59
2022/11/20 03:24:37;;;;;;;29.05;12.50;;;;;;;;;;5046394;28;20139;-60
2022/11/20 03:27:03;;;;;;;22.20;10.27;;;;;;;;;;5039096;28;20144;-59
2022/11/20 03:29:30;;;;;;;26.30;11.88;;;;;;;;;;5033357;28;20092;-59
2022/11/20 03:31:56;;;;;;;22.50;10.75;;;;;;;;;;5036220;28;20072;-57
2022/11/20 03:34:24;;;;;;;26.10;11.55;;;;;;;;;;5040942;28;20046;-60
2022/11/20 03:36:50;;;;;;;25.48;11.48;;;;;;;;;;5047357;28;20580;-60
2022/11/20 03:39:17;;;;;;;28.00;11.90;;;;;;;;;;5033327;28;20045;-56
2022/11/20 03:41:43;;;;;;;24.38;10.68;;;;;;;;;;5032547;28;20056;-58
2022/11/20 03:44:10;;;;;;;26.77;11.98;;;;;;;;;;5038771;28;20136;-60
2022/11/20 03:46:37;;;;;;;25.92;12.05;;;;;;;;;;5044661;28;20088;-60
2022/11/20 03:49:04;;;;;;;26.33;11.75;;;;;;;;;;5050491;28;20655;-58
2022/11/20 03:51:32;;;;;;;25.88;11.57;;;;;;;;;;5048796;28;20493;-57
2022/11/20 03:53:59;;;;;;;25.67;11.45;;;;;;;;;;5037182;28;20525;-60
2022/11/20 03:56:26;;;;;;;26.80;10.98;;;;;;;;;;5044540;28;20497;-60
2022/11/20 03:58:53;;;;;;;22.80;10.15;;;;;;;;;;5032526;28;20132;-60
2022/11/20 04:01:20;;;;;;;28.58;11.85;;;;;;;;;;5037241;28;20064;-60
2022/11/20 04:03:47;;;;;;;22.40;10.43;;;;;;;;;;5040228;28;20072;-59
2022/11/20 04:06:14;;;;;;;24.60;12.07;;;;;;;;;;5037218;28;20136;-59
2022/11/20 04:08:42;;;;;;;24.17;11.48;;;;;;;;;;5032365;28;20058;-59
2022/11/20 04:11:09;;;;;;;23.23;11.55;;;;;;;;;;5047633;28;20049;-58
2022/11/20 04:13:36;;;;;;;24.55;11.57;;;;;;;;;;5045167;28;20085;-60
2022/11/20 04:16:02;;;;;;;25.92;11.90;;;;;;;;;;5042854;28;20144;-59
2022/11/20 04:18:28;;;;;;;24.17;11.77;;;;;;;;;;5036706;28;20132;-59
2022/11/20 04:20:57;;;;;;;24.17;11.02;;;;;;;;;;5036876;28;20132;-59
2022/11/20 04:23:23;;;;;;;23.08;11.55;;;;;;;;;;5038579;28;20151;-60
2022/11/20 04:25:51;;;;;;;24.77;11.88;;;;;;;;;;5048049;28;20132;-58
2022/11/20 04:28:17;;;;;;;23.70;10.55;;;;;;;;;;5048539;28;20098;-56
2022/11/20 04:30:44;;;;;;;27.85;11.57;;;;;;;;;;5037082;28;20136;-58
2022/11/20 04:33:10;;;;;;;20.88;10.68;;;;;;;;;;5046690;28;20067;-59
2022/11/20 04:35:37;;;;;;;27.05;11.73;;;;;;;;;;5035991;28;20069;-60
2022/11/20 04:38:04;;;;;;;24.70;11.43;;;;;;;;;;5037881;28;20081;-58
2022/11/20 04:40:31;;;;;;;26.85;10.82;;;;;;;;;;5047904;28;20603;-59
2022/11/20 04:42:58;;;;;;;23.65;12.02;;;;;;;;;;5036042;28;20046;-57
2022/11/20 04:45:25;;;;;;;28.95;11.73;;;;;;;;;;5039236;28;20141;-59
2022/11/20 04:47:51;;;;;;;25.70;11.68;;;;;;;;;;5034981;28;20140;-59
2022/11/20 04:50:18;;;;;;;28.77;13.00;;;;;;;;;;5036733;28;20042;-59
2022/11/20 04:52:44;;;;;;;29.52;12.93;;;;;;;;;;5039543;28;20156;-58
2022/11/20 04:55:10;;;;;;;26.27;11.48;;;;;;;;;;5048866;28;20175;-59
2022/11/20 04:57:37;;;;;;;32.53;12.70;;;;;;;;;;5039045;28;20080;-58
2022/11/20 05:00:05;;;;;;;21.67;11.80;;;;;;;;;;5037976;28;20128;-60
2022/11/20 05:02:32;;;;;;;28.30;12.48;;;;;;;;;;5046115;28;20088;-58
2022/11/20 05:04:58;;;;;;;25.00;12.23;;;;;;;;;;5035813;28;20078;-59
2022/11/20 05:07:24;;;;;;;28.33;12.68;;;;;;;;;;5037665;28;20136;-59
2022/11/20 05:09:51;;;;;;;25.20;12.27;;;;;;;;;;5038107;28;20073;-59
2022/11/20 05:12:17;;;;;;;27.30;11.70;;;;;;;;;;5044830;28;20518;-59
2022/11/20 05:14:44;;;;;;;32.05;12.18;;;;;;;;;;5045772;28;20140;-58
2022/11/20 05:17:12;;;;;;;28.42;12.75;;;;;;;;;;5045143;28;20152;-58
2022/11/20 05:19:38;;;;;;;23.25;10.95;;;;;;;;;;5037282;28;20095;-60
2022/11/20 05:22:05;;;;;;;25.80;10.15;;;;;;;;;;5039138;28;20049;-57
2022/11/20 05:24:31;;;;;;;27.00;11.13;;;;;;;;;;5044343;28;20052;-59
2022/11/20 05:26:58;;;;;;;24.02;11.00;;;;;;;;;;5039027;28;20045;-58
2022/11/20 05:29:24;;;;;;;28.88;12.50;;;;;;;;;;5043557;28;20131;-57
2022/11/20 05:31:50;;;;;;;28.98;12.60;;;;;;;;;;5038542;28;20100;-60
2022/11/20 05:34:18;;;;;;;30.27;12.30;;;;;;;;;;5045210;28;20368;-58
2022/11/20 05:36:44;;;;;;;31.80;14.00;;;;;;;;;;5034769;28;20141;-59
2022/11/20 05:39:11;;;;;;;27.13;11.57;;;;;;;;;;5034672;28;20478;-58
2022/11/20 05:41:37;;;;;;;29.02;12.98;;;;;;;;;;5047407;28;20077;-60
2022/11/20 05:44:04;;;;;;;30.40;12.25;;;;;;;;;;5035175;28;20060;-59
2022/11/20 05:46:30;;;;;;;26.17;11.65;;;;;;;;;;5039815;28;20160;-60
2022/11/20 05:48:57;;;;;;;29.33;12.48;;;;;;;;;;5034688;28;20045;-59
2022/11/20 05:51:25;;;;;;;29.85;11.52;;;;;;;;;;5040409;28;20111;-60
2022/11/20 05:53:52;;;;;;;27.13;11.68;;;;;;;;;;5046524;28;20049;-59
2022/11/20 05:56:19;;;;;;;25.95;12.07;;;;;;;;;;5036969;28;20076;-57
2022/11/20 05:58:45;;;;;;;25.83;11.52;;;;;;;;;;5044726;28;20425;-59
2022/11/20 06:01:13;;;;;;;27.85;11.80;;;;;;;;;;5034932;28;20069;-59
2022/11/20 06:03:42;;;;;;;31.90;12.85;;;;;;;;;;5033701;28;20486;-60
2022/11/20 06:06:08;;;;;;;28.35;12.32;;;;;;;;;;5034941;28;20073;-60
2022/11/20 06:08:36;;;;;;;25.23;11.52;;;;;;;;;;5034457;28;20140;-58
2022/11/20 06:11:06;;;;;;;33.78;13.50;;;;;;;;;;5047020;28;20120;-60
2022/11/20 06:13:32;;;;;;;29.15;11.88;;;;;;;;;;5037626;28;20464;-59
2022/11/20 06:15:59;;;;;;;27.05;12.25;;;;;;;;;;5041247;28;20140;-58
2022/11/20 06:18:26;;;;;;;32.67;12.52;;;;;;;;;;5040377;28;20135;-60
2022/11/20 06:21:00;;;;;;;33.42;13.25;;;;;;;;;;5041438;28;20059;-59
2022/11/20 06:23:26;;;;;;;36.75;13.45;;;;;;;;;;5038450;28;20076;-59
2022/11/20 06:25:54;;;;;;;31.35;12.07;;;;;;;;;;5045602;28;20049;-59
2022/11/20 06:28:20;;;;;;;28.67;13.05;;;;;;;;;;5033526;28;20115;-58
2022/11/20 06:30:47;;;;;;;28.95;13.27;;;;;;;;;;5035029;28;20133;-59
2022/11/20 06:33:13;;;;;;;30.80;12.93;;;;;;;;;;5035521;28;20053;-59
2022/11/20 06:35:40;;;;;;;32.80;13.48;;;;;;;;;;5033029;28;20140;-59
2022/11/20 06:38:06;;;;;;;29.85;12.80;;;;;;;;;;5034616;28;20057;-58
2022/11/20 06:40:32;;;;;;;32.55;13.45;;;;;;;;;;5033716;28;20140;-60
2022/11/20 06:43:00;;;;;;;39.08;14.15;;;;;;;;;;5036375;28;20120;-60
2022/11/20 06:45:26;;;;;;;29.40;12.73;;;;;;;;;;5033459;28;20111;-59
2022/11/20 06:47:53;;;;;;;27.73;11.65;;;;;;;;;;5048699;28;20140;-59
2022/11/20 06:50:19;;;;;;;32.72;12.48;;;;;;;;;;5034912;28;20449;-60
2022/11/20 06:52:46;;;;;;;30.48;12.55;;;;;;;;;;5037968;28;20054;-59
2022/11/20 06:55:12;;;;;;;33.85;13.88;;;;;;;;;;5041527;28;20049;-59
2022/11/20 06:57:38;;;;;;;31.92;12.88;;;;;;;;;;5036814;28;20498;-60
2022/11/20 07:00:07;;;;;;;39.30;15.77;;;;;;;;;;5033127;28;20149;-59
2022/11/20 07:02:33;;;;;;;33.83;14.32;;;;;;;;;;5034995;28;20132;-59
2022/11/20 07:05:00;;;;;;;32.00;12.98;;;;;;;;;;5043526;28;20554;-59
2022/11/20 07:07:26;;;;;;;35.50;14.68;;;;;;;;;;5035098;28;20131;-59
2022/11/20 07:09:52;;;;;;;37.47;14.82;;;;;;;;;;5046119;28;20537;-60
2022/11/20 07:12:19;;;;;;;34.45;13.73;;;;;;;;;;5052585;28;20087;-60
2022/11/20 07:14:45;;;;;;;37.60;15.57;;;;;;;;;;5038620;28;20534;-60
2022/11/20 07:17:13;;;;;;;46.97;16.20;;;;;;;;;;5052725;28;20152;-60
2022/11/20 07:19:40;;;;;;;42.08;15.93;;;;;;;;;;5038212;28;20128;-58
2022/11/20 07:22:06;;;;;;;34.72;15.52;;;;;;;;;;5042985;28;20060;-59
2022/11/20 07:24:32;;;;;;;36.28;14.80;;;;;;;;;;5051221;28;20071;-59
2022/11/20 07:26:59;;;;;;;41.17;15.13;;;;;;;;;;5038821;28;20132;-60
2022/11/20 07:29:25;;;;;;;39.15;15.32;;;;;;;;;;5043117;28;20643;-59
2022/11/20 07:31:51;;;;;;;36.33;15.98;;;;;;;;;;5034262;28;20057;-58
2022/11/20 07:34:19;;;;;;;32.05;14.88;;;;;;;;;;5041258;28;20131;-60
2022/11/20 07:36:46;;;;;;;33.42;14.15;;;;;;;;;;5035233;28;20490;-59
2022/11/20 07:39:12;;;;;;;37.55;14.68;;;;;;;;;;5032026;28;20075;-59
2022/11/20 07:41:38;;;;;;;33.80;14.18;;;;;;;;;;5031686;28;20072;-59
2022/11/20 07:44:05;;;;;;;35.50;14.32;;;;;;;;;;5036647;28;20550;-58
2022/11/20 07:46:31;;;;;;;35.13;14.20;;;;;;;;;;5034593;28;20060;-56
2022/11/20 07:48:58;;;;;;;33.50;14.93;;;;;;;;;;5032612;28;20057;-59
2022/11/20 07:51:27;;;;;;;34.35;13.90;;;;;;;;;;5038023;28;20041;-57
2022/11/20 07:53:53;;;;;;;42.97;15.98;;;;;;;;;;5034943;28;20060;-59
2022/11/20 07:56:20;;;;;;;41.58;15.75;;;;;;;;;;5033464;28;20385;-58
2022/11/20 07:58:46;;;;;;;34.53;15.10;;;;;;;;;;5034879;28;20144;-59
2022/11/20 08:01:12;;;;;;;35.75;14.85;;;;;;;;;;5031992;28;20470;-60
2022/11/20 08:03:39;;;;;;;37.25;15.10;;;;;;;;;;5033674;28;20111;-58
2022/11/20 08:06:05;;;;;;;40.90;16.67;;;;;;;;;;5031944;28;20446;-58
2022/11/20 08:08:33;;;;;;;42.63;16.73;;;;;;;;;;5031984;28;20156;-59
2022/11/20 08:14:11;;;;;;;40.78;16.88;;;;;;;;;;5032277;28;20153;-60
2022/11/20 08:16:31;;;;;;;39.72;15.07;;;;;;;;;;5032004;28;20068;-58
2022/11/20 08:18:57;;;;;;;45.35;17.35;;;;;;;;;;5032267;28;20133;-59
2022/11/20 08:21:24;;;;;;;38.97;16.48;;;;;;;;;;5034494;28;20042;-60
2022/11/20 08:23:52;;;;;;;44.85;17.67;;;;;;;;;;5037425;28;20473;-60
2022/11/20 08:26:18;;;;;;;41.28;17.50;;;;;;;;;;5042584;28;20056;-59
2022/11/20 08:28:45;;;;;;;46.30;18.30;;;;;;;;;;5044900;28;20136;-59
2022/11/20 08:31:11;;;;;;;39.28;16.38;;;;;;;;;;5032214;28;20140;-59
2022/11/20 08:33:37;;;;;;;35.03;15.05;;;;;;;;;;5046379;28;20141;-59
2022/11/20 08:36:05;;;;;;;38.55;17.27;;;;;;;;;;5041085;28;20140;-59
2022/11/20 08:38:31;;;;;;;40.05;16.65;;;;;;;;;;5044390;28;20088;-60
2022/11/20 08:43:43;;;;;;;46.00;18.53;;;;;;;;;;5042181;28;20059;-59
2022/11/20 08:46:09;;;;;;;43.30;17.67;;;;;;;;;;5037064;28;20136;-59
2022/11/20 08:48:36;;;;;;;39.33;17.08;;;;;;;;;;5032212;28;20144;-59
2022/11/20 08:51:02;;;;;;;42.85;16.73;;;;;;;;;;5038607;28;20131;-60
2022/11/20 08:53:28;;;;;;;40.05;16.83;;;;;;;;;;5039789;28;20139;-59
2022/11/20 08:55:55;;;;;;;40.65;18.02;;;;;;;;;;5038399;28;20452;-58
2022/11/20 08:58:23;;;;;;;45.97;17.80;;;;;;;;;;5046415;28;20152;-58
2022/11/20 09:00:49;;;;;;;41.45;17.58;;;;;;;;;;5038925;28;20042;-59
2022/11/20 09:03:15;;;;;;;38.47;19.13;;;;;;;;;;5035263;28;20057;-59
2022/11/20 09:05:42;;;;;;;50.13;22.23;;;;;;;;;;5035374;28;20064;-59
2022/11/20 09:08:09;;;;;;;46.40;21.40;;;;;;;;;;5041454;28;20128;-58
2022/11/20 09:10:36;;;;;;;38.22;17.83;;;;;;;;;;5047625;28;20144;-60
2022/11/20 09:13:02;;;;;;;50.58;21.73;;;;;;;;;;5047225;28;21374;-60
2022/11/20 09:15:30;;;;;;;51.10;21.10;;;;;;;;;;5034880;28;20053;-59
2022/11/20 09:17:57;;;;;;;52.65;22.23;;;;;;;;;;5039309;28;20156;-58
2022/11/20 09:20:24;;;;;;;53.40;21.75;;;;;;;;;;5043193;28;20080;-58
2022/11/20 09:22:51;;;;;;;53.80;22.10;;;;;;;;;;5038501;28;20140;-60
2022/11/20 09:25:17;;;;;;;48.83;19.10;;;;;;;;;;5049782;28;20135;-60
2022/11/20 09:27:45;;;;;;;46.20;18.52;;;;;;;;;;5053979;28;20135;-58
2022/11/20 09:30:12;;;;;;;49.47;18.85;;;;;;;;;;5052983;28;20056;-59
2022/11/20 09:32:40;;;;;;;47.30;20.65;;;;;;;;;;5050779;28;20041;-59
2022/11/20 09:35:07;;;;;;;53.95;21.65;;;;;;;;;;5048153;28;20482;-59
2022/11/20 09:37:34;;;;;;;48.63;19.17;;;;;;;;;;5052473;28;20485;-58
2022/11/20 09:40:00;;;;;;;52.95;17.48;;;;;;;;;;5048025;28;20140;-60
2022/11/20 09:42:33;;;;;;;43.25;18.23;;;;;;;;;;5051494;28;20045;-58
2022/11/20 09:45:05;;;;;;;44.15;18.90;;;;;;;;;;5051639;28;20059;-60
2022/11/20 09:47:37;;;;;;;41.92;17.17;;;;;;;;;;5051481;28;20140;-60
2022/11/20 09:50:16;;;;;;;44.75;18.27;;;;;;;;;;5051173;28;20087;-59
2022/11/20 09:52:49;;;;;;;44.97;17.10;;;;;;;;;;5042922;28;20506;-60
2022/11/20 09:55:15;;;;;;;48.85;18.20;;;;;;;;;;5051275;28;20135;-59
2022/11/20 09:57:43;;;;;;;43.05;16.90;;;;;;;;;;5047362;28;20152;-60
2022/11/20 10:00:12;;;;;;;49.72;17.75;;;;;;;;;;5051633;28;20060;-59
2022/11/20 10:02:41;;;;;;;49.00;18.85;;;;;;;;;;5048318;28;20056;-60
2022/11/20 10:05:13;;;;;;;47.97;18.27;;;;;;;;;;5048796;28;20079;-60
2022/11/20 10:07:43;;;;;;;47.80;20.02;;;;;;;;;;5043209;28;20049;-57
2022/11/20 10:10:15;;;;;;;48.67;18.88;;;;;;;;;;5045848;28;20059;-59
2022/11/20 10:12:49;;;;;;;49.40;20.05;;;;;;;;;;5042639;28;20131;-60
2022/11/20 10:15:31;;;;;;;47.20;19.95;;;;;;;;;;5037333;28;20485;-60
2022/11/20 10:18:05;;;;;;;53.83;20.80;;;;;;;;;;5050998;28;20639;-59
2022/11/20 10:20:39;;;;;;;50.90;19.48;;;;;;;;;;5052531;28;20460;-59
2022/11/20 10:23:14;;;;;;;45.20;19.33;;;;;;;;;;5051885;28;20128;-59
2022/11/20 10:25:45;;;;;;;43.28;18.15;;;;;;;;;;5051514;28;20529;-60
2022/11/20 10:28:17;;;;;;;47.03;18.85;;;;;;;;;;5051802;28;20135;-60
2022/11/20 10:30:44;;;;;;;43.88;18.25;;;;;;;;;;5036881;28;20053;-60
2022/11/20 10:33:14;;;;;;;48.65;19.45;;;;;;;;;;5046524;28;20059;-60
2022/11/20 10:35:43;;;;;;;52.70;20.30;;;;;;;;;;5040494;28;20140;-59
2022/11/20 10:38:13;;;;;;;48.17;19.58;;;;;;;;;;5038635;28;20067;-60
2022/11/20 10:40:42;;;;;;;45.97;19.92;;;;;;;;;;5036185;28;20053;-60
2022/11/20 10:43:12;;;;;;;45.60;19.40;;;;;;;;;;5045780;28;20049;-60
2022/11/20 10:45:45;;;;;;;46.67;19.83;;;;;;;;;;5031734;28;20073;-58
2022/11/20 10:48:20;;;;;;;50.47;19.60;;;;;;;;;;5035398;28;20132;-59
2022/11/20 10:50:55;;;;;;;49.53;19.77;;;;;;;;;;5036576;28;20533;-59
2022/11/20 10:53:29;;;;;;;48.85;19.67;;;;;;;;;;5033628;28;20133;-59
2022/11/20 10:55:58;;;;;;;51.38;20.58;;;;;;;;;;5037670;28;20131;-59
2022/11/20 10:58:29;;;;;;;51.85;19.20;;;;;;;;;;5035126;28;20049;-59
2022/11/20 11:01:03;;;;;;;55.58;19.65;;;;;;;;;;5032779;28;20092;-59
2022/11/20 11:03:31;;;;;;;52.95;20.55;;;;;;;;;;5041459;28;20136;-59
2022/11/20 11:06:00;;;;;;;47.72;20.95;;;;;;;;;;5032392;28;20052;-59
2022/11/20 11:08:29;;;;;;;51.03;20.48;;;;;;;;;;5034846;28;20080;-59
2022/11/20 11:10:57;;;;;;;57.95;21.45;;;;;;;;;;5052983;28;20132;-56
2022/11/20 11:13:24;;;;;;;46.10;17.95;;;;;;;;;;5046253;28;20061;-59
2022/11/20 11:15:50;;;;;;;51.75;21.02;;;;;;;;;;5035099;28;20172;-60
2022/11/20 11:18:24;;;;;;;46.78;20.70;;;;;;;;;;5045605;28;20132;-60
2022/11/20 11:20:51;;;;;;;52.03;21.55;;;;;;;;;;5045481;28;20092;-59
2022/11/20 11:23:28;;;;;;;55.22;21.35;;;;;;;;;;5044564;28;20063;-56
2022/11/20 11:25:57;;;;;;;45.00;18.20;;;;;;;;;;5051531;28;20053;-58
2022/11/20 11:28:27;;;;;;;56.42;21.27;;;;;;;;;;5044227;28;20838;-55
2022/11/20 11:30:53;;;;;;;45.88;19.48;;;;;;;;;;5043912;28;20128;-57
2022/11/20 11:33:20;;;;;;;52.38;20.80;;;;;;;;;;5045057;28;20095;-56
2022/11/20 11:35:47;;;;;;;49.35;19.77;;;;;;;;;;5033838;28;20136;-58
2022/11/20 11:38:16;;;;;;;46.10;20.02;;;;;;;;;;5046529;28;20137;-57
2022/11/20 11:40:44;;;;;;;49.38;19.33;;;;;;;;;;5048362;28;20180;-58
2022/11/20 11:45:59;;;;;;;50.33;19.80;;;;;;;;;;5041005;28;20064;-57
2022/11/20 11:48:25;;;;;;;45.95;18.00;;;;;;;;;;5052387;28;20053;-57
2022/11/20 11:50:52;;;;;;;48.03;19.50;;;;;;;;;;5051680;28;20051;-57
2022/11/20 11:53:19;;;;;;;47.90;19.67;;;;;;;;;;5051758;28;20068;-57
2022/11/20 11:55:50;;;;;;;54.10;21.10;;;;;;;;;;5051736;28;20059;-56
2022/11/20 11:58:21;;;;;;;52.35;20.58;;;;;;;;;;5051522;28;20092;-57
2022/11/20 12:00:51;;;;;;;46.50;21.05;;;;;;;;;;5051406;28;20140;-57
2022/11/20 12:03:20;;;;;;;55.50;23.05;;;;;;;;;;5051660;28;20049;-58
2022/11/20 12:05:48;;;;;;;49.55;21.45;;;;;;;;;;5049528;28;20049;-57
2022/11/20 12:08:17;;;;;;;53.45;20.27;;;;;;;;;;5050430;28;20102;-58
2022/11/20 12:10:46;;;;;;;48.72;19.60;;;;;;;;;;5038481;28;20112;-57
2022/11/20 12:13:20;;;;;;;46.47;19.83;;;;;;;;;;5046746;28;20045;-58
2022/11/20 12:15:48;;;;;;;48.15;19.98;;;;;;;;;;5048973;28;20136;-57
2022/11/20 12:18:16;;;;;;;45.55;19.45;;;;;;;;;;5049554;28;20538;-59
2022/11/20 12:20:46;;;;;;;55.30;22.10;;;;;;;;;;5049206;28;20545;-58
2022/11/20 12:23:18;;;;;;;49.47;19.27;;;;;;;;;;5050211;28;20092;-59
2022/11/20 12:25:48;;;;;;;45.45;20.05;;;;;;;;;;5050784;28;20056;-57
2022/11/20 12:28:20;;;;;;;51.78;20.27;;;;;;;;;;5050823;28;20076;-58
2022/11/20 12:30:55;;;;;;;52.75;19.80;;;;;;;;;;5049135;28;20051;-58
2022/11/20 12:33:31;;;;;;;48.33;19.65;;;;;;;;;;5053213;28;20473;-58
2022/11/20 12:36:07;;;;;;;46.60;19.05;;;;;;;;;;5052978;28;20135;-58
2022/11/20 12:38:41;;;;;;;48.47;19.90;;;;;;;;;;5049985;28;20534;-59
2022/11/20 12:41:11;;;;;;;48.08;19.80;;;;;;;;;;5052537;28;20135;-58
2022/11/20 12:46:33;;;;;;;49.88;18.50;;;;;;;;;;5048623;28;20496;-58
2022/11/20 12:49:05;;;;;;;43.10;18.63;;;;;;;;;;5041685;28;20049;-56
2022/11/20 12:51:37;;;;;;;47.17;19.42;;;;;;;;;;5045506;28;20051;-59
2022/11/20 12:54:12;;;;;;;46.72;18.65;;;;;;;;;;5047573;28;20151;-59
2022/11/20 12:56:43;;;;;;;50.88;19.58;;;;;;;;;;5040533;28;20542;-58
2022/11/20 12:59:20;;;;;;;41.47;17.58;;;;;;;;;;5047885;28;20128;-58
2022/11/20 13:01:50;;;;;;;41.95;17.80;;;;;;;;;;5039955;28;20441;-59
2022/11/20 13:04:24;;;;;;;47.92;19.52;;;;;;;;;;5045786;28;20869;-59
2022/11/20 13:06:51;;;;;;;45.97;17.98;;;;;;;;;;5041804;28;20151;-59
2022/11/20 13:09:21;;;;;;;43.78;18.25;;;;;;;;;;5049654;28;20135;-58
2022/11/20 13:11:50;;;;;;;42.67;17.33;;;;;;;;;;5049105;28;20118;-57
2022/11/20 13:14:31;;;;;;;43.13;17.30;;;;;;;;;;5051069;28;20168;-58
2022/11/20 13:17:00;;;;;;;43.67;18.08;;;;;;;;;;5051749;28;20041;-59
2022/11/20 13:19:26;;;;;;;49.47;18.20;;;;;;;;;;5049158;28;20049;-59
2022/11/20 13:21:53;;;;;;;42.97;19.83;;;;;;;;;;5050980;28;20144;-58
2022/11/20 13:24:27;;;;;;;43.58;18.58;;;;;;;;;;5051664;28;20144;-59
2022/11/20 13:27:18;;;;;;;52.20;19.48;;;;;;;;;;5052910;28;20076;-58
2022/11/20 13:29:46;;;;;;;42.28;18.67;;;;;;;;;;5052563;28;20055;-57
2022/11/20 13:32:15;;;;;;;44.95;18.23;;;;;;;;;;5053096;28;20136;-58
2022/11/20 13:34:52;;;;;;;42.10;18.13;;;;;;;;;;5052207;28;20655;-58
2022/11/20 13:37:25;;;;;;;46.97;20.05;;;;;;;;;;5054248;28;20091;-58
2022/11/20 13:39:52;;;;;;;43.30;19.55;;;;;;;;;;5052325;28;20148;-58
2022/11/20 13:42:26;;;;;;;42.63;18.48;;;;;;;;;;5052607;28;20517;-57
2022/11/20 13:44:54;;;;;;;42.28;18.00;;;;;;;;;;5046487;28;20161;-58
2022/11/20 13:47:21;;;;;;;53.55;20.23;;;;;;;;;;5044898;28;20149;-58
2022/11/20 13:49:49;;;;;;;42.95;18.73;;;;;;;;;;5045143;28;20474;-57
2022/11/20 13:52:33;;;;;;;50.00;20.33;;;;;;;;;;5050418;28;20052;-57
2022/11/20 13:55:03;;;;;;;41.85;18.52;;;;;;;;;;5046343;28;20076;-57
2022/11/20 13:57:37;;;;;;;48.33;18.70;;;;;;;;;;5045721;28;20145;-58
2022/11/20 14:00:11;;;;;;;46.30;19.67;;;;;;;;;;5044307;28;20114;-53
2022/11/20 14:02:38;;;;;;;43.92;19.67;;;;;;;;;;5039798;28;20507;-55
2022/11/20 14:05:05;;;;;;;45.13;18.45;;;;;;;;;;5044681;28;20068;-53
2022/11/20 14:07:35;;;;;;;46.80;20.17;;;;;;;;;;5047317;28;20144;-55
2022/11/20 14:10:02;;;;;;;45.47;19.08;;;;;;;;;;5041337;28;20374;-55
2022/11/20 14:12:30;;;;;;;45.10;19.05;;;;;;;;;;5054182;28;20128;-55
2022/11/20 14:14:57;;;;;;;54.45;22.27;;;;;;;;;;5052458;28;20049;-56
2022/11/20 14:17:29;;;;;;;50.47;19.80;;;;;;;;;;5053878;28;20041;-54
2022/11/20 14:19:59;;;;;;;66.85;25.98;;;;;;;;;;5052313;28;20139;-56
2022/11/20 14:22:26;;;;;;;54.78;21.95;;;;;;;;;;5051422;28;20522;-54
2022/11/20 14:25:02;;;;;;;49.00;20.60;;;;;;;;;;5052418;28;20331;-56
2022/11/20 14:27:28;;;;;;;46.20;19.77;;;;;;;;;;5050848;28;20052;-54
2022/11/20 14:29:55;;;;;;;46.25;19.73;;;;;;;;;;5051492;28;20088;-57
2022/11/20 14:32:23;;;;;;;51.20;21.48;;;;;;;;;;5051120;28;20136;-56
2022/11/20 14:34:51;;;;;;;45.53;20.02;;;;;;;;;;5042886;28;20052;-56
2022/11/20 14:37:22;;;;;;;46.20;19.60;;;;;;;;;;5042965;28;20046;-56
2022/11/20 14:39:51;;;;;;;46.95;20.23;;;;;;;;;;5044518;28;20475;-55
2022/11/20 14:42:18;;;;;;;45.65;19.40;;;;;;;;;;5041197;28;20073;-56